createdAt,value
2019-04-29T00:00:30.936Z,41.73
2019-04-29T00:03:00.677Z,43.45
2019-04-29T00:05:30.493Z,39.50
2019-04-29T00:08:00.308Z,39.10
2019-04-29T00:10:31.178Z,40.85
2019-04-29T00:13:01.249Z,44.03
2019-04-29T00:15:32.788Z,35.08
2019-04-29T00:18:04.280Z,40.38
2019-04-29T00:20:44.825Z,39.83
2019-04-29T00:23:14.628Z,38.67
2019-04-29T00:25:44.676Z,41.05
2019-04-29T00:28:16.759Z,47.40
2019-04-29T00:30:54.998Z,37.13
2019-04-29T00:33:24.788Z,40.23
2019-04-29T00:35:54.624Z,45.40
2019-04-29T00:38:26.096Z,48.30
2019-04-29T00:40:57.518Z,38.08
2019-04-29T00:43:28.889Z,37.40
2019-04-29T00:45:58.673Z,30.88
2019-04-29T00:48:28.521Z,37.35
2019-04-29T00:50:58.415Z,35.38
2019-04-29T00:53:28.801Z,37.13
2019-04-29T00:56:00.508Z,37.95
2019-04-29T00:58:30.063Z,42.00
2019-04-29T01:00:59.872Z,42.55
2019-04-29T01:03:29.689Z,35.65
2019-04-29T01:05:59.402Z,39.27
2019-04-29T01:08:29.136Z,37.10
2019-04-29T01:10:58.922Z,41.30
2019-04-29T01:13:28.932Z,38.83
2019-04-29T01:15:58.738Z,32.08
2019-04-29T01:18:28.528Z,34.67
2019-04-29T01:21:11.499Z,32.60
2019-04-29T01:23:41.426Z,35.90
2019-04-29T01:26:12.811Z,33.25
2019-04-29T01:28:44.191Z,38.00
2019-04-29T01:31:15.539Z,34.23
2019-04-29T01:33:47.609Z,33.10
2019-04-29T01:36:24.690Z,35.88
2019-04-29T01:38:56.925Z,29.70
2019-04-29T01:41:28.281Z,34.55
2019-04-29T01:44:02.445Z,31.80
2019-04-29T01:46:32.381Z,36.42
2019-04-29T01:49:02.153Z,31.20
2019-04-29T01:51:32.245Z,41.70
2019-04-29T01:54:02.347Z,35.03
2019-04-29T01:56:32.058Z,35.23
2019-04-29T01:59:01.900Z,34.95
2019-04-29T02:01:31.713Z,33.75
2019-04-29T02:04:01.774Z,40.38
2019-04-29T02:06:32.887Z,37.85
2019-04-29T02:09:03.267Z,36.45
2019-04-29T02:11:33.058Z,33.65
2019-04-29T02:14:02.900Z,34.55
2019-04-29T02:16:32.749Z,33.25
2019-04-29T02:19:02.392Z,30.85
2019-04-29T02:21:32.122Z,28.95
2019-04-29T02:24:15.562Z,34.85
2019-04-29T02:26:45.333Z,36.50
2019-04-29T02:29:15.156Z,31.48
2019-04-29T02:31:46.413Z,28.83
2019-04-29T02:34:16.054Z,31.87
2019-04-29T02:36:45.690Z,28.90
2019-04-29T02:39:22.746Z,30.15
2019-04-29T02:41:57.474Z,31.25
2019-04-29T02:44:27.314Z,30.10
2019-04-29T02:46:57.635Z,28.92
2019-04-29T02:49:28.148Z,29.98
2019-04-29T02:51:57.914Z,32.05
2019-04-29T02:54:30.135Z,37.95
2019-04-29T02:57:05.754Z,34.73
2019-04-29T02:59:48.922Z,35.17
2019-04-29T03:02:21.070Z,29.98
2019-04-29T03:04:52.846Z,30.90
2019-04-29T03:07:22.916Z,28.42
2019-04-29T03:09:54.727Z,28.87
2019-04-29T03:12:24.792Z,27.15
2019-04-29T03:14:54.661Z,29.15
2019-04-29T03:17:24.390Z,35.80
2019-04-29T03:20:11.812Z,34.20
2019-04-29T03:22:46.624Z,36.30
2019-04-29T03:25:16.463Z,37.78
2019-04-29T03:27:47.069Z,37.45
2019-04-29T03:30:17.000Z,35.15
2019-04-29T03:32:46.816Z,34.80
2019-04-29T03:35:16.897Z,35.15
2019-04-29T03:37:47.388Z,49.65
2019-04-29T03:40:17.255Z,46.33
2019-04-29T03:42:46.953Z,36.15
2019-04-29T03:45:17.230Z,37.63
2019-04-29T03:47:47.271Z,34.88
2019-04-29T03:50:17.258Z,39.13
2019-04-29T03:52:47.050Z,41.00
2019-04-29T03:55:16.852Z,41.23
2019-04-29T03:57:46.485Z,33.02
2019-04-29T04:00:17.959Z,39.88
2019-04-29T04:02:55.373Z,39.23
2019-04-29T04:05:38.700Z,42.30
2019-04-29T04:08:22.864Z,34.58
2019-04-29T04:10:52.574Z,32.50
2019-04-29T04:13:22.283Z,47.27
2019-04-29T04:15:52.072Z,37.93
2019-04-29T04:18:32.194Z,52.48
2019-04-29T04:21:02.294Z,43.92
2019-04-29T04:23:32.160Z,124.05
2019-04-29T04:26:01.958Z,127.67
2019-04-29T04:28:31.678Z,73.87
2019-04-29T04:31:06.488Z,97.65
2019-04-29T04:33:34.151Z,65.35
2019-04-29T04:36:04.600Z,72.78
2019-04-29T04:38:34.390Z,146.25
2019-04-29T04:41:05.881Z,156.80
2019-04-29T04:43:35.730Z,82.20
2019-04-29T04:46:05.514Z,71.53
2019-04-29T04:48:35.323Z,118.95
2019-04-29T04:51:05.100Z,87.10
2019-04-29T04:53:34.907Z,67.05
2019-04-29T04:56:04.629Z,96.17
2019-04-29T04:58:34.294Z,114.52
2019-04-29T05:01:04.077Z,95.77
2019-04-29T05:03:33.809Z,293.12
2019-04-29T05:06:04.764Z,581.58
2019-04-29T05:08:35.098Z,264.40
2019-04-29T05:11:06.837Z,473.75
2019-04-29T05:13:36.774Z,222.93
2019-04-29T05:16:06.636Z,165.12
2019-04-29T05:18:36.281Z,197.50
2019-04-29T05:21:06.007Z,77.30
2019-04-29T05:23:35.747Z,159.03
2019-04-29T05:26:05.542Z,97.67
2019-04-29T05:28:35.279Z,86.02
2019-04-29T05:31:05.041Z,204.90
2019-04-29T05:33:34.828Z,56.37
2019-04-29T05:36:11.897Z,69.97
2019-04-29T05:38:46.148Z,41.45
2019-04-29T05:41:15.954Z,53.20
2019-04-29T05:43:47.370Z,55.98
2019-04-29T05:46:35.102Z,46.35
2019-04-29T05:49:07.133Z,34.53
2019-04-29T05:51:38.522Z,57.05
2019-04-29T05:54:12.900Z,33.15
2019-04-29T05:56:44.108Z,47.50
2019-04-29T05:59:14.046Z,33.55
2019-04-29T06:01:47.130Z,38.30
2019-04-29T06:04:16.348Z,34.03
2019-04-29T06:06:47.028Z,34.58
2019-04-29T06:09:18.349Z,54.05
2019-04-29T06:11:48.546Z,43.78
2019-04-29T06:14:22.074Z,38.17
2019-04-29T06:16:52.851Z,45.28
2019-04-29T06:19:22.418Z,45.43
2019-04-29T06:21:52.281Z,48.48
2019-04-29T06:24:22.097Z,50.48
2019-04-29T06:26:52.074Z,46.35
2019-04-29T06:29:22.087Z,42.33
2019-04-29T06:31:51.900Z,38.92
2019-04-29T06:34:22.165Z,42.58
2019-04-29T06:36:51.946Z,36.10
2019-04-29T06:39:21.747Z,40.80
2019-04-29T06:41:51.790Z,37.58
2019-04-29T06:44:21.564Z,35.20
2019-04-29T06:46:54.614Z,42.08
2019-04-29T06:49:22.814Z,31.02
2019-04-29T06:51:52.647Z,33.60
2019-04-29T06:54:22.413Z,32.42
2019-04-29T06:56:52.210Z,37.58
2019-04-29T06:59:21.921Z,45.08
2019-04-29T07:01:51.863Z,42.45
2019-04-29T07:04:21.636Z,39.50
2019-04-29T07:06:57.686Z,49.53
2019-04-29T07:09:23.004Z,44.45
2019-04-29T07:11:52.822Z,46.15
2019-04-29T07:14:22.551Z,51.20
2019-04-29T07:16:52.352Z,53.50
2019-04-29T07:19:26.632Z,42.35
2019-04-29T07:21:56.607Z,48.87
2019-04-29T07:24:26.505Z,45.25
2019-04-29T07:26:57.740Z,43.45
2019-04-29T07:29:30.529Z,41.70
2019-04-29T07:31:59.322Z,44.85
2019-04-29T07:34:33.235Z,46.05
2019-04-29T07:37:00.476Z,44.77
2019-04-29T07:39:31.657Z,43.92
2019-04-29T07:42:03.279Z,41.73
2019-04-29T07:44:43.639Z,39.83
2019-04-29T07:47:06.810Z,41.70
2019-04-29T07:49:36.449Z,36.65
2019-04-29T07:52:09.811Z,35.80
2019-04-29T07:54:37.931Z,35.23
2019-04-29T07:57:07.629Z,31.80
2019-04-29T07:59:38.456Z,30.77
2019-04-29T08:02:17.225Z,30.37
2019-04-29T08:04:46.965Z,27.60
2019-04-29T08:07:17.919Z,27.90
2019-04-29T08:09:50.128Z,29.40
2019-04-29T08:12:24.797Z,28.35
2019-04-29T08:14:58.516Z,26.52
2019-04-29T08:17:27.788Z,28.38
2019-04-29T08:20:00.599Z,32.38
2019-04-29T08:22:30.833Z,30.35
2019-04-29T08:25:00.664Z,27.90
2019-04-29T08:27:39.857Z,28.30
2019-04-29T08:30:01.854Z,26.50
2019-04-29T08:32:36.117Z,25.15
2019-04-29T08:35:03.411Z,28.65
2019-04-29T08:37:33.321Z,24.87
2019-04-29T08:40:15.450Z,28.83
2019-04-29T08:42:46.886Z,28.83
2019-04-29T08:45:24.569Z,28.70
2019-04-29T08:47:54.431Z,24.47
2019-04-29T08:50:24.139Z,24.98
2019-04-29T08:52:53.784Z,26.48
2019-04-29T08:55:26.527Z,21.20
2019-04-29T08:57:54.867Z,26.02
2019-04-29T09:00:24.857Z,21.82
2019-04-29T09:02:54.585Z,21.07
2019-04-29T09:05:24.399Z,17.95
2019-04-29T09:07:57.282Z,17.50
2019-04-29T09:10:27.613Z,17.37
2019-04-29T09:12:59.124Z,17.50
2019-04-29T09:15:31.954Z,18.05
2019-04-29T09:18:01.761Z,18.42
2019-04-29T09:20:34.479Z,14.65
2019-04-29T09:23:08.201Z,16.37
2019-04-29T09:26:02.894Z,16.52
2019-04-29T09:28:29.889Z,17.15
2019-04-29T09:30:59.902Z,15.85
2019-04-29T09:33:29.521Z,14.65
2019-04-29T09:35:59.173Z,15.95
2019-04-29T09:38:32.468Z,14.05
2019-04-29T09:41:01.883Z,15.28
2019-04-29T09:43:41.697Z,14.15
2019-04-29T09:46:18.984Z,15.18
2019-04-29T09:48:48.726Z,12.58
2019-04-29T09:51:22.875Z,14.10
2019-04-29T09:53:50.845Z,13.53
2019-04-29T09:56:20.597Z,13.62
2019-04-29T09:58:51.879Z,13.80
2019-04-29T10:01:38.656Z,14.05
2019-04-29T10:04:09.934Z,13.70
2019-04-29T10:06:41.321Z,14.23
2019-04-29T10:09:20.856Z,14.35
2019-04-29T10:11:51.081Z,11.73
2019-04-29T10:14:21.151Z,13.25
2019-04-29T10:22:54.989Z,14.25
2019-04-29T10:25:28.027Z,14.47
2019-04-29T10:27:57.724Z,14.50
2019-04-29T10:30:31.127Z,16.07
2019-04-29T10:36:05.534Z,17.75
2019-04-29T10:38:35.806Z,16.60
2019-04-29T10:41:07.356Z,17.27
2019-04-29T10:43:53.546Z,17.90
2019-04-29T10:46:36.298Z,17.50
2019-04-29T10:49:07.677Z,18.17
2019-04-29T10:51:37.520Z,18.20
2019-04-29T10:54:08.087Z,16.27
2019-04-29T10:56:39.470Z,19.30
2019-04-29T10:59:11.180Z,16.90
2019-04-29T11:02:14.306Z,18.30
2019-04-29T11:04:47.404Z,17.27
2019-04-29T11:07:26.387Z,17.60
2019-04-29T11:10:03.731Z,18.15
2019-04-29T11:12:33.545Z,18.20
2019-04-29T11:15:03.712Z,21.30
2019-04-29T11:17:35.041Z,17.02
2019-04-29T11:20:11.149Z,18.17
2019-04-29T11:22:44.696Z,17.92
2019-04-29T11:25:21.935Z,17.92
2019-04-29T11:27:56.134Z,18.95
2019-04-29T11:30:27.185Z,14.70
2019-04-29T11:33:00.130Z,16.02
2019-04-29T11:35:50.102Z,17.00
2019-04-29T11:38:21.687Z,17.05
2019-04-29T11:40:52.830Z,16.93
2019-04-29T11:43:24.195Z,17.17
2019-04-29T11:45:54.678Z,16.12
2019-04-29T11:48:24.522Z,17.85
2019-04-29T11:50:55.910Z,16.27
2019-04-29T11:53:25.867Z,18.35
2019-04-29T11:55:56.860Z,17.45
2019-04-29T11:58:31.738Z,19.70
2019-04-29T12:01:12.225Z,17.15
2019-04-29T12:03:43.652Z,16.37
2019-04-29T12:06:20.548Z,15.53
2019-04-29T12:08:52.743Z,15.48
2019-04-29T12:11:22.473Z,16.07
2019-04-29T12:14:10.045Z,16.75
2019-04-29T12:16:41.422Z,16.82
2019-04-29T12:19:16.994Z,16.48
2019-04-29T12:21:48.239Z,16.17
2019-04-29T12:28:19.243Z,16.90
2019-04-29T12:30:53.535Z,17.30
2019-04-29T12:33:43.428Z,17.30
2019-04-29T12:36:16.508Z,17.37
2019-04-29T12:38:50.787Z,18.40
2019-04-29T12:41:29.864Z,17.48
2019-04-29T12:44:01.165Z,17.10
2019-04-29T12:46:32.560Z,16.37
2019-04-29T12:49:03.652Z,16.17
2019-04-29T12:51:33.816Z,15.75
2019-04-29T12:54:08.076Z,17.30
2019-04-29T12:56:43.017Z,16.32
2019-04-29T12:59:14.750Z,17.80
2019-04-29T13:01:57.991Z,15.93
2019-04-29T13:04:31.873Z,17.20
2019-04-29T13:07:09.130Z,16.00
2019-04-29T13:09:41.304Z,16.35
2019-04-29T13:12:25.950Z,15.20
2019-04-29T13:15:03.059Z,16.23
2019-04-29T13:17:35.273Z,16.27
2019-04-29T13:20:13.161Z,16.30
2019-04-29T13:22:45.875Z,15.70
2019-04-29T13:25:19.755Z,18.60
2019-04-29T13:28:09.894Z,17.77
2019-04-29T13:30:43.248Z,15.70
2019-04-29T13:33:17.788Z,18.42
2019-04-29T13:36:07.196Z,15.48
2019-04-29T13:38:48.130Z,16.07
2019-04-29T13:41:23.650Z,16.17
2019-04-29T13:43:50.577Z,15.43
2019-04-29T13:46:25.341Z,16.42
2019-04-29T13:49:13.579Z,15.15
2019-04-29T13:51:44.802Z,14.15
2019-04-29T13:54:14.729Z,14.47
2019-04-29T13:56:55.655Z,15.38
2019-04-29T13:59:17.833Z,14.93
2019-04-29T14:02:07.362Z,11.53
2019-04-29T14:04:39.934Z,10.58
2019-04-29T14:07:09.764Z,12.60
2019-04-29T14:09:40.532Z,10.78
2019-04-29T14:12:46.324Z,12.25
2019-04-29T14:14:42.906Z,11.60
2019-04-29T14:17:25.913Z,12.88
2019-04-29T14:19:45.307Z,12.65
2019-04-29T14:22:22.064Z,14.43
2019-04-29T14:24:47.099Z,12.10
2019-04-29T14:27:24.713Z,13.93
2019-04-29T14:29:51.685Z,12.37
2019-04-29T14:32:34.557Z,11.48
2019-04-29T14:35:01.850Z,12.98
2019-04-29T14:37:31.568Z,12.33
2019-04-29T14:40:02.732Z,11.93
2019-04-29T14:42:37.167Z,12.90
2019-04-29T14:45:26.059Z,10.95
2019-04-29T14:48:13.342Z,13.45
2019-04-29T14:50:45.676Z,11.10
2019-04-29T14:53:19.419Z,12.15
2019-04-29T14:55:49.902Z,12.75
2019-04-29T14:58:19.713Z,10.72
2019-04-29T15:00:51.137Z,11.00
2019-04-29T15:03:27.937Z,10.60
2019-04-29T15:06:04.625Z,11.40
2019-04-29T15:08:36.193Z,10.43
2019-04-29T15:11:08.975Z,11.53
2019-04-29T15:13:38.191Z,10.98
2019-04-29T15:16:14.306Z,13.53
2019-04-29T15:18:51.069Z,11.63
2019-04-29T15:21:32.092Z,13.13
2019-04-29T15:23:56.134Z,11.28
2019-04-29T15:26:25.877Z,12.00
2019-04-29T15:28:55.891Z,11.25
2019-04-29T15:31:26.279Z,12.28
2019-04-29T15:33:56.904Z,10.23
2019-04-29T15:36:26.724Z,9.10
2019-04-29T15:39:09.064Z,9.28
2019-04-29T15:41:33.256Z,9.63
2019-04-29T15:44:07.450Z,10.72
2019-04-29T15:46:46.149Z,9.65
2019-04-29T15:49:08.416Z,14.70
2019-04-29T15:51:38.219Z,12.70
2019-04-29T15:54:09.215Z,14.87
2019-04-29T15:56:40.044Z,21.40
2019-04-29T15:59:11.751Z,11.03
2019-04-29T16:01:42.321Z,12.07
2019-04-29T16:04:13.913Z,11.50
2019-04-29T16:07:03.801Z,9.73
2019-04-29T16:09:51.037Z,9.95
2019-04-29T16:12:15.421Z,12.68
2019-04-29T16:14:43.148Z,10.20
2019-04-29T16:17:13.100Z,10.25
2019-04-29T16:19:42.836Z,10.25
2019-04-29T16:22:12.951Z,9.20
2019-04-29T16:24:44.206Z,9.75
2019-04-29T16:27:15.674Z,11.08
2019-04-29T16:29:46.077Z,8.93
2019-04-29T16:32:28.250Z,10.55
2019-04-29T16:35:02.935Z,10.30
2019-04-29T16:37:34.093Z,10.60
2019-04-29T16:40:09.785Z,9.80
2019-04-29T16:42:43.639Z,8.35
2019-04-29T16:45:17.984Z,9.05
2019-04-29T16:47:50.225Z,9.78
2019-04-29T16:50:22.590Z,9.90
2019-04-29T16:53:03.325Z,7.80
2019-04-29T16:55:43.221Z,13.85
2019-04-29T16:58:17.709Z,9.78
2019-04-29T17:00:51.872Z,11.55
2019-04-29T17:06:01.741Z,7.80
2019-04-29T17:09:05.064Z,11.43
2019-04-29T17:11:32.915Z,10.03
2019-04-29T17:14:12.506Z,14.60
2019-04-29T17:16:37.474Z,9.08
2019-04-29T17:19:07.431Z,9.75
2019-04-29T17:21:38.087Z,13.10
2019-04-29T17:24:09.773Z,8.25
2019-04-29T17:26:43.723Z,9.48
2019-04-29T17:29:48.914Z,11.25
2019-04-29T17:32:09.187Z,11.05
2019-04-29T17:34:58.103Z,8.03
2019-04-29T17:37:13.269Z,9.05
2019-04-29T17:39:44.276Z,10.05
2019-04-29T17:42:14.818Z,13.18
2019-04-29T17:44:45.889Z,13.35
2019-04-29T17:47:37.763Z,11.68
2019-04-29T17:50:12.915Z,10.00
2019-04-29T17:52:42.870Z,12.07
2019-04-29T17:55:15.495Z,15.85
2019-04-29T17:57:46.947Z,12.20
2019-04-29T18:00:21.121Z,16.37
2019-04-29T18:03:02.236Z,15.70
2019-04-29T18:05:54.839Z,15.72
2019-04-29T18:08:25.372Z,15.28
2019-04-29T18:10:59.835Z,17.82
2019-04-29T18:13:35.321Z,12.55
2019-04-29T18:16:17.488Z,10.93
2019-04-29T18:19:05.712Z,12.75
2019-04-29T18:21:53.700Z,14.40
2019-04-29T18:24:29.448Z,15.38
2019-04-29T18:27:02.849Z,12.63
2019-04-29T18:29:55.732Z,15.28
2019-04-29T18:32:34.970Z,11.15
2019-04-29T18:35:26.432Z,13.75
2019-04-29T18:37:57.922Z,12.95
2019-04-29T18:40:30.043Z,12.85
2019-04-29T18:42:59.507Z,13.62
2019-04-29T18:45:31.636Z,13.75
2019-04-29T18:48:01.027Z,13.45
2019-04-29T18:50:34.189Z,14.03
2019-04-29T18:53:02.576Z,13.32
2019-04-29T18:55:32.456Z,14.38
2019-04-29T18:58:02.236Z,16.00
2019-04-29T19:00:32.109Z,12.80
2019-04-29T19:03:01.882Z,14.07
2019-04-29T19:05:35.528Z,15.03
2019-04-29T19:08:14.352Z,12.60
2019-04-29T19:10:40.326Z,15.60
2019-04-29T19:13:16.459Z,16.42
2019-04-29T19:15:46.991Z,15.18
2019-04-29T19:18:17.392Z,12.93
2019-04-29T19:20:52.553Z,13.62
2019-04-29T19:23:22.439Z,15.35
2019-04-29T19:25:50.867Z,14.33
2019-04-29T19:28:29.775Z,13.13
2019-04-29T19:30:56.042Z,14.78
2019-04-29T19:33:25.289Z,14.23
2019-04-29T19:35:55.416Z,14.33
2019-04-29T19:38:25.575Z,16.30
2019-04-29T19:40:55.505Z,15.30
2019-04-29T19:43:25.852Z,15.45
2019-04-29T19:45:57.424Z,16.35
2019-04-29T19:48:28.758Z,18.17
2019-04-29T19:51:13.872Z,15.75
2019-04-29T19:53:30.246Z,17.77
2019-04-29T19:56:03.781Z,16.00
2019-04-29T19:58:32.098Z,16.60
2019-04-29T20:01:13.119Z,16.15
2019-04-29T20:03:41.075Z,15.55
2019-04-29T20:06:14.083Z,15.20
2019-04-29T20:08:53.102Z,18.10
2019-04-29T20:11:15.117Z,16.75
2019-04-29T20:13:52.047Z,16.70
2019-04-29T20:16:40.490Z,17.02
2019-04-29T20:19:02.872Z,19.70
2019-04-29T20:21:36.209Z,18.75
2019-04-29T20:24:09.372Z,17.73
2019-04-29T20:26:38.965Z,15.53
2019-04-29T20:29:09.065Z,16.77
2019-04-29T20:31:43.581Z,18.98
2019-04-29T20:34:10.823Z,17.07
2019-04-29T20:36:42.920Z,17.98
2019-04-29T20:39:16.947Z,18.12
2019-04-29T20:41:47.052Z,19.27
2019-04-29T20:44:16.630Z,17.82
2019-04-29T20:47:12.691Z,18.17
2019-04-29T20:49:18.323Z,18.98
2019-04-29T20:51:52.348Z,20.43
2019-04-29T20:54:32.390Z,19.25
2019-04-29T20:57:05.474Z,18.27
2019-04-29T20:59:42.010Z,17.02
2019-04-29T21:02:12.559Z,17.70
2019-04-29T21:04:46.445Z,20.40
2019-04-29T21:07:18.388Z,17.57
2019-04-29T21:09:46.143Z,18.92
2019-04-29T21:12:20.450Z,18.12
2019-04-29T21:14:59.318Z,17.50
2019-04-29T21:17:31.687Z,18.62
2019-04-29T21:19:59.495Z,18.23
2019-04-29T21:22:29.322Z,19.87
2019-04-29T21:24:59.119Z,18.87
2019-04-29T21:27:29.259Z,19.07
2019-04-29T21:29:59.173Z,19.50
2019-04-29T21:32:30.536Z,16.87
2019-04-29T21:35:05.818Z,18.12
2019-04-29T21:37:40.096Z,17.82
2019-04-29T21:40:18.697Z,19.27
2019-04-29T21:42:58.099Z,22.73
2019-04-29T21:45:27.874Z,20.70
2019-04-29T21:47:57.670Z,18.82
2019-04-29T21:50:33.924Z,18.77
2019-04-29T21:53:01.963Z,18.67
2019-04-29T21:55:30.686Z,21.25
2019-04-29T21:58:01.569Z,19.62
2019-04-29T22:00:32.483Z,17.42
2019-04-29T22:03:03.259Z,21.07
2019-04-29T22:05:57.273Z,18.98
2019-04-29T22:08:30.071Z,21.85
2019-04-29T22:11:06.953Z,17.25
2019-04-29T22:13:46.454Z,21.10
2019-04-29T22:16:17.315Z,20.55
2019-04-29T22:18:51.919Z,19.95
2019-04-29T22:21:22.122Z,19.85
2019-04-29T22:23:52.321Z,26.15
2019-04-29T22:26:23.309Z,18.27
2019-04-29T22:29:01.615Z,19.90
2019-04-29T22:31:26.831Z,16.32
2019-04-29T22:33:57.409Z,15.32
2019-04-29T22:36:27.584Z,16.27
2019-04-29T22:38:57.360Z,17.75
2019-04-29T22:41:34.604Z,18.50
2019-04-29T22:44:06.965Z,15.23
2019-04-29T22:46:40.040Z,16.75
2019-04-29T22:49:08.363Z,16.37
2019-04-29T22:51:38.151Z,18.87
2019-04-29T22:54:07.964Z,15.28
2019-04-29T22:56:40.504Z,18.10
2019-04-29T22:59:09.571Z,14.70
2019-04-29T23:01:42.328Z,19.42
2019-04-29T23:04:14.506Z,15.03
2019-04-29T23:06:44.669Z,15.40
2019-04-29T23:09:14.156Z,16.50
2019-04-29T23:11:45.045Z,14.03
2019-04-29T23:14:18.737Z,14.75
2019-04-29T23:16:48.643Z,17.40
2019-04-29T23:19:19.370Z,14.13
2019-04-29T23:22:07.626Z,15.15
2019-04-29T23:24:55.753Z,15.03
2019-04-29T23:27:26.048Z,11.80
2019-04-29T23:29:55.998Z,12.47
2019-04-29T23:32:26.598Z,12.60
2019-04-29T23:35:01.650Z,10.58
2019-04-29T23:37:29.456Z,12.13
2019-04-29T23:39:59.503Z,12.60
2019-04-29T23:42:29.373Z,11.53
2019-04-29T23:44:59.209Z,11.12
2019-04-29T23:47:29.149Z,13.58
2019-04-29T23:50:00.624Z,14.95
2019-04-29T23:52:30.546Z,11.95
2019-04-29T23:55:01.356Z,14.13
2019-04-29T23:57:38.896Z,12.05
